Time;durP1;ratioP1;P1;durP2;ratioP2;P2;SDS_P1;SDS_P2;PMS_P1;PMS_P2;Temp;Humidity;BMP_temperature;BMP_pressure;BME280_temperature;BME280_humidity;BME280_pressure;Samples;Min_cycle;Max_cycle;Signal;HPM_P1;HPM_P2
2021/01/28 00:00:52;;;;;;;1.42;0.82;;;21.20;67.30;;;;;;5090256;28;20571;-65
2021/01/28 00:03:18;;;;;;;1.25;0.70;;;21.20;67.20;;;;;;5084801;28;20103;-66
2021/01/28 00:05:44;;;;;;;3.15;1.00;;;21.20;67.20;;;;;;5084867;28;20125;-67
2021/01/28 00:08:11;;;;;;;1.70;0.90;;;21.20;67.20;;;;;;5084485;28;20032;-53
2021/01/28 00:10:37;;;;;;;1.33;0.60;;;21.20;67.20;;;;;;5085835;28;20025;-61
2021/01/28 00:13:04;;;;;;;0.90;0.60;;;21.20;67.10;;;;;;5088888;28;20032;-52
2021/01/28 00:15:31;;;;;;;1.25;0.63;;;21.20;67.20;;;;;;5084704;28;20729;-52
2021/01/28 00:17:57;;;;;;;;;;;21.20;67.20;;;;;;5083079;28;20043;-55
2021/01/28 00:20:34;;;;;;;2.10;0.90;;;21.20;67.60;;;;;;5084601;28;19917;-54
2021/01/28 00:23:00;;;;;;;1.83;0.90;;;21.20;67.50;;;;;;5083310;28;20575;-53
2021/01/28 00:25:26;;;;;;;3.37;0.97;;;21.20;67.60;;;;;;5082526;28;20063;-56
2021/01/28 00:27:53;;;;;;;2.25;0.80;;;21.20;67.70;;;;;;5084550;28;20043;-54
2021/01/28 00:30:25;;;;;;;1.77;0.87;;;21.20;67.80;;;;;;5084548;28;20037;-56
2021/01/28 00:32:51;;;;;;;2.67;0.90;;;21.30;68.00;;;;;;5084520;28;20028;-53
2021/01/28 00:35:30;;;;;;;3.40;0.90;;;21.30;68.20;;;;;;5091360;28;20028;-50
2021/01/28 00:37:56;;;;;;;2.28;0.88;;;21.30;68.40;;;;;;5104979;28;20020;-54
2021/01/28 00:40:23;;;;;;;1.25;0.70;;;21.30;68.60;;;;;;5101902;28;20049;-56
2021/01/28 00:42:50;;;;;;;1.98;0.75;;;21.30;68.70;;;;;;5084482;28;20071;-56
2021/01/28 00:45:21;;;;;;;0.75;0.70;;;21.30;68.70;;;;;;5084553;28;20020;-54
2021/01/28 00:47:47;;;;;;;1.58;0.85;;;21.30;68.60;;;;;;5090289;28;20048;-54
2021/01/28 00:50:14;;;;;;;1.98;1.48;;;21.40;68.60;;;;;;5084139;28;20039;-56
2021/01/28 00:52:40;;;;;;;;;;;21.40;68.50;;;;;;5083439;28;20032;-55
2021/01/28 00:55:08;;;;;;;0.90;0.70;;;21.40;68.60;;;;;;5081859;28;19916;-53
2021/01/28 00:57:34;;;;;;;1.85;0.70;;;21.40;68.40;;;;;;5079767;28;20112;-54
2021/01/28 01:00:00;;;;;;;1.13;0.80;;;21.40;68.40;;;;;;5081266;28;20055;-56
2021/01/28 01:02:27;;;;;;;1.00;0.65;;;21.40;68.40;;;;;;5082574;28;20021;-56
2021/01/28 01:04:53;;;;;;;2.40;1.13;;;21.40;68.30;;;;;;5084108;28;20092;-56
2021/01/28 01:07:19;;;;;;;2.05;0.77;;;21.40;68.30;;;;;;5084061;28;20024;-54
2021/01/28 01:09:45;;;;;;;1.30;0.77;;;21.40;68.10;;;;;;5083581;28;20056;-55
2021/01/28 01:12:11;;;;;;;1.80;1.00;;;21.40;68.10;;;;;;5084133;28;20070;-58
2021/01/28 01:14:38;;;;;;;0.90;0.70;;;21.40;68.00;;;;;;5083262;28;20032;-56
2021/01/28 01:17:04;;;;;;;1.00;0.70;;;21.40;68.00;;;;;;5083734;28;20028;-56
2021/01/28 01:19:30;;;;;;;2.22;0.70;;;21.50;68.00;;;;;;5083724;28;20033;-58
2021/01/28 01:21:56;;;;;;;0.88;0.70;;;21.40;67.80;;;;;;5086113;28;20025;-57
2021/01/28 01:24:24;;;;;;;1.00;0.70;;;21.40;67.80;;;;;;5083481;28;20115;-56
2021/01/28 01:26:50;;;;;;;2.40;0.80;;;21.40;67.70;;;;;;5083844;28;20024;-55
2021/01/28 01:29:16;;;;;;;1.98;0.80;;;21.40;68.40;;;;;;5083377;28;20037;-55
2021/01/28 01:31:42;;;;;;;1.23;0.75;;;21.40;67.60;;;;;;5083339;28;20054;-56
2021/01/28 01:34:08;;;;;;;0.80;0.70;;;21.40;67.60;;;;;;5094595;28;20020;-55
2021/01/28 01:36:35;;;;;;;1.73;1.00;;;21.40;67.60;;;;;;5096329;28;20032;-55
2021/01/28 01:39:01;;;;;;;1.45;0.80;;;21.40;67.50;;;;;;5083378;28;20021;-58
2021/01/28 01:41:30;;;;;;;1.27;1.00;;;21.40;67.40;;;;;;5071481;28;20457;-56
2021/01/28 01:44:03;;;;;;;1.77;0.90;;;21.40;67.40;;;;;;5080475;28;20025;-57
2021/01/28 01:46:29;;;;;;;2.67;0.90;;;21.40;67.40;;;;;;5082824;28;20050;-58
2021/01/28 01:48:59;;;;;;;2.60;0.82;;;21.40;67.30;;;;;;5095642;28;20046;-52
2021/01/28 01:51:42;;;;;;;1.40;0.85;;;21.40;67.30;;;;;;5074391;28;20088;-60
2021/01/28 01:54:28;;;;;;;2.15;0.75;;;21.40;67.60;;;;;;5085020;28;20044;-60
2021/01/28 01:57:17;;;;;;;4.85;1.13;;;21.40;67.60;;;;;;5083692;28;20055;-59
2021/01/28 01:59:58;;;;;;;5.15;1.02;;;21.40;67.60;;;;;;5077484;28;20044;-60
2021/01/28 02:02:24;;;;;;;3.00;1.10;;;21.30;67.50;;;;;;5081120;28;20024;-58
2021/01/28 02:04:59;;;;;;;6.32;1.40;;;21.30;67.60;;;;;;5078065;28;20024;-61
2021/01/28 02:10:48;;;;;;;19.10;1.77;;;21.40;67.70;;;;;;5060451;28;20056;-60
2021/01/28 02:13:14;;;;;;;4.82;1.50;;;21.40;67.60;;;;;;5056622;28;20031;-60
2021/01/28 02:15:40;;;;;;;3.22;1.17;;;21.40;67.60;;;;;;5061802;28;20039;-60
2021/01/28 02:18:06;;;;;;;4.97;1.70;;;21.40;67.50;;;;;;5063014;28;20055;-60
2021/01/28 02:20:55;;;;;;;8.27;1.33;;;21.40;67.50;;;;;;5063056;28;20166;-60
2021/01/28 02:23:37;;;;;;;5.03;1.52;;;21.40;67.30;;;;;;5079163;28;20603;-60
2021/01/28 02:26:04;;;;;;;5.18;1.55;;;21.40;67.20;;;;;;5078248;28;20025;-60
2021/01/28 02:28:31;;;;;;;4.10;1.00;;;21.40;67.20;;;;;;5062995;28;20079;-60
2021/01/28 02:30:58;;;;;;;5.78;1.17;;;21.40;67.00;;;;;;5060502;28;20029;-60
2021/01/28 02:33:54;;;;;;;3.13;1.00;;;21.40;67.00;;;;;;5047222;28;20025;-61
2021/01/28 02:36:47;;;;;;;3.15;1.02;;;21.40;67.00;;;;;;5025615;28;20042;-54
2021/01/28 02:39:15;;;;;;;4.45;1.30;;;21.40;67.30;;;;;;5020368;28;20033;-59
2021/01/28 02:41:42;;;;;;;3.78;1.10;;;21.40;67.50;;;;;;5035934;28;20033;-58
2021/01/28 02:44:09;;;;;;;4.28;1.00;;;21.40;67.30;;;;;;5043572;28;20180;-60
2021/01/28 02:46:35;;;;;;;2.65;1.10;;;21.40;67.00;;;;;;5060092;28;20029;-59
2021/01/28 02:49:01;;;;;;;3.67;1.00;;;21.40;66.80;;;;;;5047472;28;20430;-59
2021/01/28 02:51:27;;;;;;;4.97;1.13;;;21.40;66.70;;;;;;5043096;28;20032;-59
2021/01/28 02:53:54;;;;;;;2.58;1.15;;;21.40;66.50;;;;;;5041511;28;20040;-60
2021/01/28 02:56:24;;;;;;;2.00;1.07;;;21.40;66.50;;;;;;5027286;28;20063;-59
2021/01/28 02:58:50;;;;;;;2.67;1.30;;;21.40;66.30;;;;;;5043676;28;20050;-59
2021/01/28 03:01:16;;;;;;;5.32;2.42;;;21.40;66.20;;;;;;5043658;28;20037;-59
2021/01/28 03:03:42;;;;;;;6.65;2.05;;;21.40;66.40;;;;;;5046246;28;20041;-59
2021/01/28 03:06:09;;;;;;;4.82;2.20;;;21.40;66.80;;;;;;5063708;28;20068;-59
2021/01/28 03:08:36;;;;;;;3.63;1.98;;;21.40;66.80;;;;;;5053012;28;20048;-59
2021/01/28 03:11:02;;;;;;;6.73;1.83;;;21.40;66.60;;;;;;5044034;28;20033;-58
2021/01/28 03:13:28;;;;;;;4.15;1.75;;;21.40;66.50;;;;;;5045015;28;20688;-58
2021/01/28 03:15:55;;;;;;;5.70;1.70;;;21.30;66.20;;;;;;5050749;28;20040;-59
2021/01/28 03:18:21;;;;;;;5.03;1.48;;;21.30;66.00;;;;;;5066198;28;20040;-59
2021/01/28 03:20:48;;;;;;;5.38;2.33;;;21.30;65.90;;;;;;5073431;28;20040;-58
2021/01/28 03:23:15;;;;;;;7.43;2.60;;;21.30;65.80;;;;;;5064987;28;20025;-59
2021/01/28 03:25:41;;;;;;;;;;;21.30;65.80;;;;;;5066140;28;20485;-59
2021/01/28 03:28:07;;;;;;;4.35;2.70;;;21.30;66.00;;;;;;5061486;28;19919;-58
2021/01/28 03:30:37;;;;;;;4.68;2.20;;;21.30;66.00;;;;;;5073484;28;20091;-59
2021/01/28 03:33:04;;;;;;;6.88;2.20;;;21.30;65.80;;;;;;5069691;28;20028;-59
2021/01/28 03:35:30;;;;;;;5.55;1.88;;;21.30;65.70;;;;;;5068282;28;20029;-59
2021/01/28 03:37:57;;;;;;;3.08;1.52;;;21.20;65.60;;;;;;5075865;28;20661;-59
2021/01/28 03:40:25;;;;;;;3.78;1.80;;;21.20;65.40;;;;;;5069613;28;20127;-59
2021/01/28 03:42:51;;;;;;;3.65;1.67;;;21.20;65.30;;;;;;5071527;28;20025;-59
2021/01/28 03:45:18;;;;;;;2.67;1.33;;;21.20;65.20;;;;;;5070578;28;20055;-59
2021/01/28 03:47:44;;;;;;;3.38;1.50;;;21.20;65.20;;;;;;5072639;28;20024;-58
2021/01/28 03:50:11;;;;;;;3.20;1.15;;;21.10;65.10;;;;;;5073934;28;20033;-57
2021/01/28 03:52:37;;;;;;;3.42;1.45;;;21.10;65.00;;;;;;5070299;28;20092;-60
2021/01/28 03:55:04;;;;;;;1.40;1.10;;;21.10;64.90;;;;;;5072526;28;20556;-58
2021/01/28 03:57:30;;;;;;;2.42;1.20;;;21.10;65.00;;;;;;5071979;28;20037;-58
2021/01/28 03:59:57;;;;;;;2.70;1.23;;;21.10;64.80;;;;;;5067806;28;20083;-57
2021/01/28 04:02:23;;;;;;;2.05;1.13;;;21.10;64.70;;;;;;5073306;28;20059;-59
2021/01/28 04:04:49;;;;;;;2.22;1.30;;;21.00;64.70;;;;;;5073165;28;20029;-59
2021/01/28 04:07:15;;;;;;;3.28;1.08;;;21.00;64.60;;;;;;5068739;28;20033;-57
2021/01/28 04:09:41;;;;;;;3.90;1.30;;;21.00;64.60;;;;;;5066591;28;20024;-57
2021/01/28 04:12:08;;;;;;;2.30;1.02;;;21.00;64.50;;;;;;5066181;28;20044;-58
2021/01/28 04:14:35;;;;;;;2.03;1.15;;;21.00;64.40;;;;;;5069847;28;20054;-58
2021/01/28 04:17:01;;;;;;;;;;;21.00;64.40;;;;;;5070895;28;20043;-58
2021/01/28 04:19:27;;;;;;;1.20;1.02;;;20.90;64.50;;;;;;5073982;28;19938;-58
2021/01/28 04:21:54;;;;;;;1.25;1.02;;;20.90;64.30;;;;;;5067713;28;20039;-58
2021/01/28 04:24:20;;;;;;;1.38;1.00;;;20.90;64.30;;;;;;5069733;28;20029;-62
2021/01/28 04:26:46;;;;;;;2.38;1.30;;;20.90;64.30;;;;;;5071532;28;20028;-60
2021/01/28 04:29:12;;;;;;;4.72;1.40;;;20.90;64.20;;;;;;5068165;28;20028;-57
2021/01/28 04:31:38;;;;;;;3.47;1.65;;;20.90;64.40;;;;;;5069922;28;20083;-58
2021/01/28 04:34:04;;;;;;;2.17;1.20;;;20.90;64.50;;;;;;5074414;28;20104;-59
2021/01/28 04:36:31;;;;;;;2.22;1.25;;;20.90;64.50;;;;;;5069404;28;20024;-59
2021/01/28 04:38:57;;;;;;;1.75;1.20;;;20.80;64.30;;;;;;5074793;28;20043;-58
2021/01/28 04:41:26;;;;;;;2.10;0.90;;;20.80;64.30;;;;;;5069263;28;20640;-58
2021/01/28 04:43:53;;;;;;;1.88;0.88;;;20.80;64.30;;;;;;5071075;28;20044;-59
2021/01/28 04:46:24;;;;;;;2.33;1.02;;;20.80;64.40;;;;;;5066513;28;20022;-59
2021/01/28 04:48:50;;;;;;;2.17;1.30;;;20.80;64.50;;;;;;5066166;28;20025;-58
2021/01/28 04:51:17;;;;;;;2.13;0.85;;;20.80;64.50;;;;;;5071551;28;20059;-59
2021/01/28 04:54:32;;;;;;;1.83;0.90;;;20.80;64.80;;;;;;5068511;28;20059;-57
2021/01/28 04:56:59;;;;;;;1.33;0.80;;;20.80;65.10;;;;;;5071737;28;20063;-58
2021/01/28 04:59:29;;;;;;;;;;;20.80;65.30;;;;;;5069939;28;20045;-57
2021/01/28 05:01:55;;;;;;;2.85;0.90;;;20.80;65.40;;;;;;5069103;28;19928;-57
2021/01/28 05:04:22;;;;;;;0.98;0.77;;;20.80;65.30;;;;;;5067023;28;20366;-57
2021/01/28 05:06:54;;;;;;;1.35;0.90;;;20.80;65.30;;;;;;5069160;28;20096;-57
2021/01/28 05:09:20;;;;;;;1.95;0.98;;;20.80;65.20;;;;;;5072044;28;20032;-55
2021/01/28 05:11:57;;;;;;;0.95;0.70;;;20.80;65.10;;;;;;5068316;28;20047;-58
2021/01/28 05:14:28;;;;;;;1.10;0.70;;;20.80;65.00;;;;;;5067096;28;20033;-57
2021/01/28 05:16:59;;;;;;;1.45;0.65;;;20.80;65.00;;;;;;5069661;28;20033;-58
2021/01/28 05:19:36;;;;;;;2.20;0.70;;;20.80;64.90;;;;;;5069275;28;20040;-58
2021/01/28 05:22:24;;;;;;;1.35;0.80;;;20.70;64.80;;;;;;5074244;28;20755;-57
2021/01/28 05:24:57;;;;;;;1.00;0.70;;;20.70;64.70;;;;;;5082070;28;20044;-58
2021/01/28 05:27:26;;;;;;;1.00;0.70;;;20.70;65.30;;;;;;5083656;28;20024;-56
2021/01/28 05:29:54;;;;;;;2.88;0.70;;;20.70;65.30;;;;;;5083509;28;20025;-56
2021/01/28 05:32:42;;;;;;;0.60;0.60;;;20.70;64.40;;;;;;5083716;28;20035;-57
2021/01/28 05:35:23;;;;;;;1.42;0.77;;;20.70;64.40;;;;;;5083832;28;20052;-55
2021/01/28 05:37:50;;;;;;;0.90;0.70;;;20.70;64.30;;;;;;5083258;28;20118;-58
2021/01/28 05:40:18;;;;;;;;;;;20.60;64.20;;;;;;5083184;28;20017;-56
2021/01/28 05:42:45;;;;;;;0.98;0.50;;;20.60;64.30;;;;;;5048432;28;19942;-57
2021/01/28 05:45:23;;;;;;;1.45;0.63;;;20.60;64.20;;;;;;5093539;28;20096;-56
2021/01/28 05:47:50;;;;;;;1.58;0.75;;;20.60;64.10;;;;;;5062953;28;20044;-57
2021/01/28 05:50:16;;;;;;;1.60;0.68;;;20.60;64.00;;;;;;5064410;28;20055;-57
2021/01/28 05:52:42;;;;;;;1.52;0.80;;;20.60;64.00;;;;;;5063443;28;20042;-56
2021/01/28 05:55:11;;;;;;;1.15;0.60;;;20.60;63.90;;;;;;5063455;28;20131;-56
2021/01/28 05:58:23;;;;;;;0.70;0.60;;;20.60;63.80;;;;;;5061458;28;20478;-56
2021/01/28 06:00:59;;;;;;;0.60;0.50;;;20.50;63.80;;;;;;5038221;28;20053;-57
2021/01/28 06:04:04;;;;;;;1.35;0.80;;;20.50;63.80;;;;;;5055041;28;20036;-56
2021/01/28 06:06:54;;;;;;;0.95;0.60;;;20.50;63.80;;;;;;5025663;28;20080;-57
2021/01/28 06:09:33;;;;;;;0.80;0.60;;;20.50;63.70;;;;;;5042425;28;20038;-55
2021/01/28 06:12:02;;;;;;;0.60;0.50;;;20.50;63.60;;;;;;5025166;28;20068;-56
2021/01/28 06:14:50;;;;;;;1.20;0.60;;;20.40;63.60;;;;;;5040571;28;20033;-56
2021/01/28 06:17:55;;;;;;;0.65;0.60;;;20.40;63.60;;;;;;5020789;28;20049;-56
2021/01/28 06:20:32;;;;;;;1.08;0.60;;;20.40;63.60;;;;;;5006840;28;20133;-57
2021/01/28 06:23:33;;;;;;;0.60;0.50;;;20.40;63.50;;;;;;5004393;28;20056;-57
2021/01/28 06:26:21;;;;;;;0.60;0.60;;;20.40;63.40;;;;;;5005990;28;20034;-55
2021/01/28 06:29:18;;;;;;;0.47;0.40;;;20.30;63.40;;;;;;5009996;28;20057;-57
2021/01/28 06:31:57;;;;;;;0.55;0.50;;;20.30;63.40;;;;;;5009372;28;20052;-55
2021/01/28 06:34:32;;;;;;;0.75;0.65;;;20.30;63.40;;;;;;5026742;28;20064;-56
2021/01/28 06:37:25;;;;;;;0.75;0.75;;;20.30;63.30;;;;;;5065566;28;20055;-56
2021/01/28 06:39:51;;;;;;;0.60;0.60;;;20.30;63.30;;;;;;5064865;28;20067;-57
2021/01/28 06:42:26;;;;;;;0.70;0.70;;;20.30;63.20;;;;;;5065821;28;20839;-56
2021/01/28 06:45:01;;;;;;;1.10;0.60;;;20.30;63.20;;;;;;5068646;28;20050;-57
2021/01/28 06:47:35;;;;;;;0.73;0.73;;;20.30;63.20;;;;;;5086710;28;20063;-56
2021/01/28 06:50:31;;;;;;;0.60;0.60;;;20.20;63.20;;;;;;5084984;28;20096;-53
2021/01/28 06:53:03;;;;;;;0.60;0.60;;;20.20;63.20;;;;;;5065152;28;20032;-55
2021/01/28 06:56:10;;;;;;;0.80;0.52;;;20.20;63.80;;;;;;5067203;28;20033;-55
2021/01/28 06:59:02;;;;;;;0.70;0.60;;;20.20;63.10;;;;;;5066040;28;20059;-54
2021/01/28 07:01:34;;;;;;;1.20;0.77;;;20.20;63.00;;;;;;5063052;28;20048;-54
2021/01/28 07:04:18;;;;;;;0.95;0.80;;;20.10;62.90;;;;;;5066349;28;20573;-55
2021/01/28 07:06:52;;;;;;;0.77;0.70;;;20.10;62.80;;;;;;5065171;28;20083;-55
2021/01/28 07:09:30;;;;;;;0.70;0.70;;;20.10;62.90;;;;;;5068311;28;20082;-55
2021/01/28 07:11:57;;;;;;;;;;;20.10;62.90;;;;;;5066881;28;20035;-54
2021/01/28 07:14:23;;;;;;;0.63;0.60;;;20.10;62.90;;;;;;5098542;28;19905;-56
2021/01/28 07:17:11;;;;;;;0.98;0.80;;;20.00;62.80;;;;;;5081371;28;20056;-53
2021/01/28 07:19:39;;;;;;;0.90;0.80;;;20.00;62.80;;;;;;5094639;28;20080;-55
2021/01/28 07:22:30;;;;;;;0.90;0.60;;;20.00;62.70;;;;;;5097690;28;20108;-55
2021/01/28 07:24:57;;;;;;;0.70;0.60;;;20.00;62.70;;;;;;5065639;28;20029;-53
2021/01/28 07:27:44;;;;;;;0.77;0.70;;;20.00;62.60;;;;;;5065933;28;20088;-54
2021/01/28 07:30:34;;;;;;;0.85;0.77;;;20.00;62.60;;;;;;5063974;28;20473;-53
2021/01/28 07:33:00;;;;;;;0.63;0.63;;;20.00;62.60;;;;;;5064395;28;20036;-54
2021/01/28 07:35:27;;;;;;;2.25;0.60;;;19.90;62.50;;;;;;5065705;28;20097;-54
2021/01/28 07:37:56;;;;;;;0.50;0.50;;;19.90;62.40;;;;;;5065795;28;20052;-53
2021/01/28 07:41:01;;;;;;;0.60;0.60;;;19.90;62.50;;;;;;5066432;28;20120;-54
2021/01/28 07:43:29;;;;;;;0.88;0.80;;;19.90;62.50;;;;;;5065266;28;20031;-53
2021/01/28 07:46:27;;;;;;;1.20;0.80;;;19.90;62.30;;;;;;5065511;28;20041;-56
2021/01/28 07:49:27;;;;;;;0.60;0.60;;;19.90;62.50;;;;;;5060900;28;20513;-56
2021/01/28 07:52:16;;;;;;;0.88;0.70;;;19.80;62.40;;;;;;5065037;28;20088;-54
2021/01/28 07:54:46;;;;;;;0.73;0.60;;;19.80;62.30;;;;;;5045297;28;20090;-54
2021/01/28 07:57:28;;;;;;;0.57;0.52;;;19.80;62.30;;;;;;5046521;28;20032;-56
2021/01/28 08:00:04;;;;;;;0.60;0.55;;;19.80;62.30;;;;;;5064092;28;20055;-54
2021/01/28 08:02:36;;;;;;;0.77;0.60;;;19.80;62.30;;;;;;5063599;28;20029;-51
2021/01/28 08:05:04;;;;;;;0.77;0.77;;;19.80;62.30;;;;;;5065055;28;20021;-54
2021/01/28 08:07:36;;;;;;;1.92;0.75;;;19.80;62.30;;;;;;5065177;28;20043;-56
2021/01/28 08:10:20;;;;;;;0.88;0.70;;;19.70;62.20;;;;;;5065067;28;20029;-54
2021/01/28 08:12:56;;;;;;;0.70;0.70;;;19.70;62.10;;;;;;5064881;28;20429;-54
2021/01/28 08:15:37;;;;;;;0.80;0.70;;;19.70;62.10;;;;;;5063093;28;20029;-54
2021/01/28 08:18:26;;;;;;;0.73;0.70;;;19.70;62.10;;;;;;5063531;28;20029;-55
2021/01/28 08:21:13;;;;;;;0.80;0.80;;;19.70;62.00;;;;;;5063643;28;20036;-54
2021/01/28 08:23:43;;;;;;;1.55;0.73;;;19.60;62.00;;;;;;5064598;28;20489;-54
2021/01/28 08:26:30;;;;;;;0.60;0.60;;;19.60;62.00;;;;;;5063572;28;20044;-55
2021/01/28 08:29:14;;;;;;;1.50;0.90;;;19.60;61.90;;;;;;5065024;28;20021;-53
2021/01/28 08:31:53;;;;;;;0.63;0.63;;;19.60;61.90;;;;;;5064317;28;20060;-55
2021/01/28 08:34:25;;;;;;;1.05;0.80;;;19.60;61.90;;;;;;5073952;28;20432;-52
2021/01/28 08:36:56;;;;;;;0.95;0.70;;;19.60;61.90;;;;;;5084681;28;20028;-54
2021/01/28 08:39:33;;;;;;;0.80;0.80;;;19.50;61.70;;;;;;5083156;28;20092;-54
2021/01/28 08:42:13;;;;;;;1.40;0.90;;;19.50;61.80;;;;;;5067121;28;20120;-52
2021/01/28 08:44:41;;;;;;;1.05;0.57;;;19.50;61.80;;;;;;5064408;28;20021;-53
2021/01/28 08:47:18;;;;;;;0.70;0.68;;;19.50;61.70;;;;;;5096212;28;20017;-53
2021/01/28 08:49:48;;;;;;;2.17;0.65;;;19.50;61.70;;;;;;5064348;28;20044;-54
2021/01/28 08:52:16;;;;;;;0.80;0.77;;;19.50;61.80;;;;;;5082471;28;20391;-54
2021/01/28 08:54:44;;;;;;;0.88;0.75;;;19.40;61.70;;;;;;5062763;28;20049;-53
2021/01/28 08:57:18;;;;;;;1.13;0.90;;;19.40;61.60;;;;;;5061948;28;20031;-54
2021/01/28 08:59:46;;;;;;;0.90;0.80;;;19.40;61.60;;;;;;5056642;28;20036;-55
2021/01/28 09:02:25;;;;;;;0.70;0.63;;;19.40;61.60;;;;;;5065496;28;20029;-55
2021/01/28 09:05:18;;;;;;;0.88;0.88;;;19.40;61.50;;;;;;5065958;28;20048;-55
2021/01/28 09:07:56;;;;;;;2.38;0.80;;;19.40;61.60;;;;;;5061386;28;20783;-56
2021/01/28 09:10:40;;;;;;;0.70;0.70;;;19.40;61.60;;;;;;5065423;28;20033;-52
2021/01/28 09:13:29;;;;;;;0.80;0.77;;;19.30;61.40;;;;;;5083936;28;20115;-56
2021/01/28 09:16:15;;;;;;;1.20;0.80;;;19.30;61.40;;;;;;5083854;28;20111;-55
2021/01/28 09:18:43;;;;;;;0.70;0.70;;;19.30;61.40;;;;;;5082689;28;20020;-54
2021/01/28 09:21:15;;;;;;;0.80;0.70;;;19.30;61.40;;;;;;5078391;28;20047;-54
2021/01/28 09:24:04;;;;;;;0.77;0.77;;;19.30;61.50;;;;;;5082566;28;20020;-52
2021/01/28 09:26:36;;;;;;;1.45;0.80;;;19.30;61.40;;;;;;5070056;28;20048;-54
2021/01/28 09:29:19;;;;;;;0.80;0.60;;;19.20;61.30;;;;;;5063418;28;20031;-52
2021/01/28 09:31:45;;;;;;;1.45;0.90;;;19.20;61.30;;;;;;5063745;28;20025;-53
2021/01/28 09:34:13;;;;;;;2.53;0.90;;;19.20;61.30;;;;;;5063423;28;20021;-54
2021/01/28 09:36:39;;;;;;;0.82;0.80;;;19.20;61.20;;;;;;5080901;28;20040;-52
2021/01/28 09:39:15;;;;;;;1.15;1.00;;;19.20;61.30;;;;;;5082749;28;20024;-54
2021/01/28 09:41:44;;;;;;;1.45;1.10;;;19.10;61.20;;;;;;5081673;28;20033;-55
2021/01/28 09:44:34;;;;;;;1.15;0.90;;;19.10;61.30;;;;;;5078674;28;20033;-54
2021/01/28 09:47:21;;;;;;;0.93;0.90;;;19.10;61.40;;;;;;5083648;28;20028;-53
2021/01/28 09:49:50;;;;;;;1.08;0.98;;;19.10;61.30;;;;;;5083684;28;20036;-56
2021/01/28 09:52:21;;;;;;;1.30;0.82;;;19.10;61.30;;;;;;5063632;28;20029;-54
2021/01/28 09:54:52;;;;;;;1.17;1.08;;;19.00;61.20;;;;;;5062866;28;20100;-52
2021/01/28 09:57:18;;;;;;;0.82;0.82;;;19.00;61.30;;;;;;5063210;28;20079;-53
2021/01/28 09:59:44;;;;;;;1.98;1.20;;;19.00;61.20;;;;;;5063241;28;20526;-54
2021/01/28 10:02:13;;;;;;;0.67;0.67;;;19.00;61.20;;;;;;5062827;28;20045;-53
2021/01/28 10:04:41;;;;;;;1.00;0.85;;;19.00;61.10;;;;;;5061735;28;20029;-51
2021/01/28 10:07:07;;;;;;;1.02;0.90;;;19.00;61.10;;;;;;5058927;28;20092;-53
2021/01/28 10:09:33;;;;;;;1.58;0.82;;;18.90;61.00;;;;;;5069563;28;20158;-52
2021/01/28 10:12:00;;;;;;;1.00;0.90;;;18.90;61.10;;;;;;5068552;28;20017;-54
2021/01/28 10:14:26;;;;;;;1.15;0.95;;;18.90;61.10;;;;;;5071860;28;20568;-51
2021/01/28 10:16:52;;;;;;;1.25;1.15;;;18.90;61.10;;;;;;5067587;28;20028;-54
2021/01/28 10:19:18;;;;;;;1.92;0.90;;;18.90;61.10;;;;;;5070614;28;20058;-52
2021/01/28 10:21:44;;;;;;;1.80;0.85;;;18.90;61.10;;;;;;5069432;28;20083;-51
2021/01/28 10:24:11;;;;;;;0.93;0.90;;;18.90;61.10;;;;;;5065853;28;20051;-52
2021/01/28 10:26:37;;;;;;;10.35;1.23;;;18.80;61.10;;;;;;5076995;28;20025;-52
2021/01/28 10:29:03;;;;;;;0.98;0.90;;;18.80;61.10;;;;;;5068036;28;20040;-52
2021/01/28 10:31:29;;;;;;;1.80;1.10;;;18.80;61.00;;;;;;5071214;28;20025;-52
2021/01/28 10:33:55;;;;;;;1.55;1.00;;;18.80;61.00;;;;;;5070615;28;20021;-52
2021/01/28 10:36:22;;;;;;;1.10;1.00;;;18.80;61.00;;;;;;5071974;28;20075;-49
2021/01/28 10:38:48;;;;;;;0.95;0.85;;;18.70;60.80;;;;;;5068800;28;20040;-54
2021/01/28 10:41:14;;;;;;;0.75;0.73;;;18.70;60.80;;;;;;5068988;28;20101;-50
2021/01/28 10:43:40;;;;;;;1.15;1.05;;;18.70;60.70;;;;;;5068000;28;20039;-51
2021/01/28 10:46:06;;;;;;;0.75;0.75;;;18.70;60.80;;;;;;5068409;28;20024;-51
2021/01/28 10:48:32;;;;;;;1.02;0.88;;;18.70;60.90;;;;;;5068395;28;20045;-51
2021/01/28 10:50:58;;;;;;;0.80;0.80;;;18.70;60.90;;;;;;5077563;28;20017;-54
2021/01/28 10:53:25;;;;;;;1.90;1.08;;;18.70;60.90;;;;;;5062552;28;20048;-52
2021/01/28 10:55:51;;;;;;;0.88;0.80;;;18.70;60.90;;;;;;5062878;28;20097;-54
2021/01/28 10:58:17;;;;;;;1.00;0.90;;;18.60;60.80;;;;;;5062362;28;20029;-50
2021/01/28 11:00:44;;;;;;;0.80;0.80;;;18.60;60.90;;;;;;5063036;28;20025;-50
2021/01/28 11:03:11;;;;;;;2.33;1.13;;;18.60;60.80;;;;;;5062487;28;20033;-51
2021/01/28 11:05:37;;;;;;;0.90;0.88;;;18.60;60.80;;;;;;5062721;28;20439;-52
2021/01/28 11:08:04;;;;;;;0.90;0.80;;;18.60;60.70;;;;;;5065411;28;20017;-55
2021/01/28 11:10:30;;;;;;;;;;;18.60;60.70;;;;;;5064879;28;20043;-52
2021/01/28 11:12:57;;;;;;;0.80;0.70;;;18.60;60.90;;;;;;5061443;28;19968;-50
2021/01/28 11:15:25;;;;;;;1.00;0.90;;;18.60;60.70;;;;;;5065155;28;20760;-50
2021/01/28 11:17:51;;;;;;;;;;;18.50;60.70;;;;;;5065382;28;20048;-54
2021/01/28 11:20:17;;;;;;;0.65;0.65;;;18.50;60.70;;;;;;5065829;28;19912;-55
2021/01/28 11:22:43;;;;;;;0.90;0.70;;;18.50;60.70;;;;;;5066217;28;20033;-54
2021/01/28 11:25:18;;;;;;;0.80;0.77;;;18.50;60.70;;;;;;5066078;28;20021;-53
2021/01/28 11:27:45;;;;;;;0.80;0.80;;;18.50;60.70;;;;;;5065680;28;20450;-55
2021/01/28 11:30:13;;;;;;;0.77;0.73;;;18.50;60.70;;;;;;5065417;28;20024;-55
2021/01/28 11:32:39;;;;;;;0.85;0.75;;;18.50;60.70;;;;;;5065888;28;20039;-52
2021/01/28 11:35:06;;;;;;;1.33;1.00;;;18.50;60.70;;;;;;5066027;28;20096;-52
2021/01/28 11:37:32;;;;;;;0.85;0.82;;;18.40;60.70;;;;;;5079315;28;20029;-53
2021/01/28 11:39:58;;;;;;;1.60;0.75;;;18.40;60.70;;;;;;5079390;28;20025;-51
2021/01/28 11:42:24;;;;;;;1.00;0.90;;;18.40;60.60;;;;;;5046038;28;20037;-51
2021/01/28 11:44:51;;;;;;;0.57;0.57;;;18.40;60.70;;;;;;5054103;28;20044;-53
2021/01/28 11:47:17;;;;;;;0.68;0.68;;;18.40;60.70;;;;;;5064463;28;20021;-50
2021/01/28 11:49:43;;;;;;;0.90;0.80;;;18.40;60.60;;;;;;5065545;28;20017;-54
2021/01/28 11:52:09;;;;;;;0.93;0.88;;;18.40;60.50;;;;;;5065743;28;20111;-53
2021/01/28 11:54:35;;;;;;;0.88;0.82;;;18.30;60.60;;;;;;5104350;28;20135;-51
2021/01/28 11:57:02;;;;;;;0.88;0.80;;;18.30;60.50;;;;;;5075943;28;20036;-52
2021/01/28 11:59:28;;;;;;;0.80;0.80;;;18.30;60.50;;;;;;5065332;28;20045;-55
2021/01/28 12:01:54;;;;;;;0.80;0.80;;;18.30;60.60;;;;;;5065369;28;20064;-52
2021/01/28 12:04:20;;;;;;;0.75;0.75;;;18.30;60.60;;;;;;5065408;28;20079;-51
2021/01/28 12:06:46;;;;;;;0.90;0.80;;;18.30;60.60;;;;;;5065494;28;20128;-52
2021/01/28 12:09:13;;;;;;;0.83;0.80;;;18.30;60.50;;;;;;5065583;28;20036;-53
2021/01/28 12:11:39;;;;;;;0.77;0.68;;;18.30;60.60;;;;;;5065258;28;20191;-51
2021/01/28 12:14:05;;;;;;;1.10;0.73;;;18.20;60.50;;;;;;5065326;28;20558;-53
2021/01/28 12:16:31;;;;;;;0.68;0.68;;;18.20;60.50;;;;;;5065216;28;20051;-54
2021/01/28 12:18:57;;;;;;;0.93;0.70;;;18.20;60.50;;;;;;5065200;28;20055;-53
2021/01/28 12:21:23;;;;;;;0.95;0.70;;;18.20;60.50;;;;;;5064347;28;20036;-54
2021/01/28 12:23:50;;;;;;;1.05;0.95;;;18.20;60.30;;;;;;5065190;28;20028;-53
2021/01/28 12:26:16;;;;;;;0.50;0.50;;;18.20;60.30;;;;;;5064731;28;20021;-53
2021/01/28 12:28:42;;;;;;;0.75;0.75;;;18.20;60.40;;;;;;5065304;28;20056;-53
2021/01/28 12:31:09;;;;;;;0.60;0.60;;;18.20;60.40;;;;;;5064734;28;20036;-53
2021/01/28 12:33:39;;;;;;;1.15;0.85;;;18.10;60.30;;;;;;5064940;28;20028;-54
2021/01/28 12:36:09;;;;;;;1.10;0.77;;;18.10;60.30;;;;;;5064707;28;20037;-54
2021/01/28 12:38:35;;;;;;;1.85;1.05;;;18.10;60.40;;;;;;5064824;28;20036;-55
2021/01/28 12:41:01;;;;;;;0.70;0.70;;;18.10;60.30;;;;;;5064856;28;20033;-54
2021/01/28 12:43:28;;;;;;;0.67;0.67;;;18.10;60.40;;;;;;5063128;28;20032;-53
2021/01/28 12:45:55;;;;;;;0.80;0.80;;;18.10;60.30;;;;;;5064630;28;20050;-52
2021/01/28 12:48:21;;;;;;;0.80;0.70;;;18.10;60.30;;;;;;5064369;28;20044;-50
2021/01/28 12:50:47;;;;;;;0.50;0.50;;;18.00;60.30;;;;;;5064069;28;20051;-52
2021/01/28 12:53:13;;;;;;;0.85;0.60;;;18.00;60.20;;;;;;5064685;28;20025;-52
2021/01/28 12:55:39;;;;;;;0.77;0.73;;;18.00;60.30;;;;;;5063966;28;20044;-52
2021/01/28 12:58:05;;;;;;;0.75;0.60;;;18.00;60.30;;;;;;5079697;28;20021;-54
2021/01/28 13:00:32;;;;;;;0.80;0.80;;;18.00;60.30;;;;;;5063814;28;20115;-53
2021/01/28 13:02:58;;;;;;;1.40;0.73;;;18.00;60.30;;;;;;5064213;28;20029;-54
2021/01/28 13:05:24;;;;;;;0.73;0.70;;;18.00;60.30;;;;;;5080657;28;20120;-54
2021/01/28 13:07:50;;;;;;;0.50;0.50;;;17.90;60.20;;;;;;5096208;28;20132;-50
2021/01/28 13:10:17;;;;;;;0.82;0.75;;;17.90;60.10;;;;;;5077157;28;20029;-53
2021/01/28 13:12:43;;;;;;;0.68;0.68;;;17.90;60.10;;;;;;5062433;28;20108;-54